Time;durP1;ratioP1;P1;durP2;ratioP2;P2;SDS_P1;SDS_P2;PMS_P1;PMS_P2;Temp;Humidity;BMP_temperature;BMP_pressure;BME280_temperature;BME280_humidity;BME280_pressure;Samples;Min_cycle;Max_cycle;Signal;HPM_P1;HPM_P2
2022/12/07 00:01:34;;;;;;;5.53;4.18;;;2.50;99.90;;;;;;509221;233;27456;-67
2022/12/07 00:03:35;;;;;;;5.28;4.28;;;2.50;99.90;;;;;;509238;233;27439;-66
2022/12/07 00:05:37;;;;;;;5.03;4.53;;;2.50;99.90;;;;;;509232;233;27369;-68
2022/12/07 00:07:38;;;;;;;5.85;4.75;;;2.50;99.90;;;;;;509266;233;27443;-69
2022/12/07 00:09:41;;;;;;;5.28;4.60;;;2.40;99.90;;;;;;509269;233;27337;-65
2022/12/07 00:11:40;;;;;;;6.55;5.28;;;2.40;99.90;;;;;;509115;233;27452;-66
2022/12/07 00:13:42;;;;;;;4.95;4.10;;;2.40;99.90;;;;;;509216;233;27404;-65
2022/12/07 00:15:43;;;;;;;5.40;4.53;;;2.40;99.90;;;;;;509218;233;27836;-66
2022/12/07 00:17:44;;;;;;;4.97;4.37;;;2.40;99.90;;;;;;509262;233;27888;-68
2022/12/07 00:19:45;;;;;;;8.05;4.75;;;2.40;99.90;;;;;;509268;233;27844;-65
2022/12/07 00:21:47;;;;;;;4.82;4.32;;;2.40;99.90;;;;;;509222;233;27867;-67
2022/12/07 00:23:48;;;;;;;6.12;3.97;;;2.40;99.90;;;;;;509185;233;27322;-65
2022/12/07 00:25:49;;;;;;;7.05;5.07;;;2.40;99.90;;;;;;509207;233;27360;-66
2022/12/07 00:27:50;;;;;;;6.62;4.85;;;2.40;99.90;;;;;;509190;233;27381;-68
2022/12/07 00:29:52;;;;;;;5.47;4.30;;;2.40;99.90;;;;;;509210;233;27420;-66
2022/12/07 00:31:53;;;;;;;5.90;4.60;;;2.30;99.90;;;;;;509205;233;27446;-67
2022/12/07 00:33:54;;;;;;;5.72;4.85;;;2.30;99.90;;;;;;509178;233;27563;-65
2022/12/07 00:35:55;;;;;;;5.82;5.07;;;2.20;99.90;;;;;;509174;233;27478;-65
2022/12/07 00:37:57;;;;;;;6.28;4.72;;;2.30;99.90;;;;;;509238;233;27483;-68
2022/12/07 00:39:58;;;;;;;5.15;4.47;;;2.30;99.90;;;;;;509195;233;27432;-65
2022/12/07 00:41:59;;;;;;;6.35;4.30;;;2.30;99.90;;;;;;509212;233;27454;-66
2022/12/07 00:44:00;;;;;;;5.40;4.60;;;2.30;99.90;;;;;;509198;233;27895;-65
2022/12/07 00:46:02;;;;;;;5.93;4.97;;;2.30;99.90;;;;;;509251;233;27868;-65
2022/12/07 00:48:03;;;;;;;8.32;5.12;;;2.30;99.90;;;;;;509284;233;27937;-69
2022/12/07 00:50:04;;;;;;;6.65;5.07;;;2.30;99.90;;;;;;509243;233;27808;-65
2022/12/07 00:52:05;;;;;;;5.70;4.60;;;2.30;99.90;;;;;;509261;233;27357;-65
2022/12/07 00:54:07;;;;;;;5.35;4.50;;;2.40;99.90;;;;;;509266;233;27412;-66
2022/12/07 00:56:08;;;;;;;6.60;4.75;;;2.30;99.90;;;;;;509243;233;27429;-65
2022/12/07 00:58:11;;;;;;;6.87;4.93;;;2.40;99.90;;;;;;509274;233;27368;-68
2022/12/07 01:00:12;;;;;;;5.37;4.60;;;2.40;99.90;;;;;;509234;233;27373;-66
2022/12/07 01:02:13;;;;;;;7.32;5.00;;;2.30;99.90;;;;;;509247;233;27422;-68
2022/12/07 01:04:14;;;;;;;6.90;5.32;;;2.30;99.90;;;;;;509243;233;27825;-65
2022/12/07 01:06:16;;;;;;;6.40;5.30;;;2.40;99.90;;;;;;509233;233;27865;-67
2022/12/07 01:08:17;;;;;;;7.50;5.45;;;2.30;99.90;;;;;;509210;233;27875;-65
2022/12/07 01:10:18;;;;;;;6.97;5.18;;;2.30;99.90;;;;;;509247;233;27895;-66
2022/12/07 01:12:19;;;;;;;7.80;5.32;;;2.30;99.90;;;;;;509242;233;27363;-68
2022/12/07 01:14:21;;;;;;;7.80;5.65;;;2.30;99.90;;;;;;509238;233;27364;-65
2022/12/07 01:16:22;;;;;;;6.62;5.18;;;2.30;99.90;;;;;;509230;233;27470;-66
2022/12/07 01:18:23;;;;;;;6.40;5.10;;;2.30;99.90;;;;;;509235;233;27322;-65
2022/12/07 01:20:24;;;;;;;6.15;5.50;;;2.30;99.90;;;;;;509217;233;27459;-65
2022/12/07 01:22:26;;;;;;;6.22;4.72;;;2.30;99.90;;;;;;509252;233;27472;-70
2022/12/07 01:24:27;;;;;;;6.93;4.93;;;2.30;99.90;;;;;;509247;233;27424;-67
2022/12/07 01:26:28;;;;;;;6.30;4.90;;;2.30;99.90;;;;;;509254;233;27404;-65
2022/12/07 01:28:29;;;;;;;7.10;4.80;;;2.30;99.90;;;;;;509272;233;27396;-65
2022/12/07 01:30:31;;;;;;;7.22;5.35;;;2.20;99.90;;;;;;509248;233;27389;-65
2022/12/07 01:32:32;;;;;;;6.15;5.10;;;2.20;99.90;;;;;;509254;233;27476;-69
2022/12/07 01:34:33;;;;;;;6.60;5.25;;;2.20;99.90;;;;;;509259;233;27794;-65
2022/12/07 01:36:34;;;;;;;8.55;5.18;;;2.10;99.90;;;;;;509271;233;27834;-65
2022/12/07 01:38:36;;;;;;;6.70;4.97;;;2.10;99.90;;;;;;509267;233;27868;-66
2022/12/07 01:40:37;;;;;;;6.07;5.25;;;2.00;99.90;;;;;;509321;233;27341;-66
2022/12/07 01:42:38;;;;;;;7.75;5.75;;;2.00;99.90;;;;;;509309;233;27353;-67
2022/12/07 01:44:39;;;;;;;6.93;5.60;;;2.10;99.90;;;;;;509289;233;27333;-65
2022/12/07 01:46:41;;;;;;;6.43;5.25;;;2.00;99.90;;;;;;509269;233;27369;-65
2022/12/07 01:48:42;;;;;;;7.32;5.80;;;2.10;99.90;;;;;;509259;233;27318;-65
2022/12/07 01:50:43;;;;;;;7.05;5.40;;;2.10;99.90;;;;;;509290;233;27447;-66
2022/12/07 01:52:44;;;;;;;7.25;5.15;;;2.10;99.90;;;;;;509247;233;27401;-67
2022/12/07 01:54:46;;;;;;;8.23;5.60;;;2.10;99.90;;;;;;509241;233;27334;-65
2022/12/07 01:56:47;;;;;;;7.25;5.50;;;2.10;99.90;;;;;;509249;233;27444;-66
2022/12/07 01:58:48;;;;;;;7.18;5.80;;;2.10;99.90;;;;;;509258;233;27322;-65
2022/12/07 02:00:49;;;;;;;6.85;5.12;;;2.10;99.90;;;;;;509285;233;27333;-66
2022/12/07 02:02:51;;;;;;;6.50;5.18;;;2.10;99.90;;;;;;509265;233;27962;-68
2022/12/07 02:04:52;;;;;;;6.50;5.07;;;2.10;99.90;;;;;;509266;233;27896;-66
2022/12/07 02:06:53;;;;;;;6.62;5.32;;;2.10;99.90;;;;;;509239;233;27866;-65
2022/12/07 02:08:54;;;;;;;7.82;5.68;;;2.10;99.90;;;;;;509235;233;27403;-65
2022/12/07 02:10:56;;;;;;;7.90;5.53;;;2.10;99.90;;;;;;509279;233;27310;-66
2022/12/07 02:12:57;;;;;;;7.55;5.37;;;2.10;99.90;;;;;;509268;233;27364;-69
2022/12/07 02:14:58;;;;;;;7.78;6.15;;;2.10;99.90;;;;;;509262;233;27346;-65
2022/12/07 02:16:59;;;;;;;8.10;5.75;;;2.10;99.90;;;;;;509249;233;27372;-66
2022/12/07 02:19:01;;;;;;;7.65;6.00;;;2.10;99.90;;;;;;509256;233;27388;-66
2022/12/07 02:21:02;;;;;;;8.70;6.25;;;2.10;99.90;;;;;;509217;233;27503;-66
2022/12/07 02:23:03;;;;;;;7.75;5.65;;;2.10;99.90;;;;;;509261;233;27369;-67
2022/12/07 02:25:04;;;;;;;10.48;6.20;;;2.10;99.90;;;;;;509260;233;27734;-65
2022/12/07 02:27:06;;;;;;;7.97;5.87;;;2.10;99.90;;;;;;509251;233;27361;-66
2022/12/07 02:29:07;;;;;;;9.55;6.80;;;2.10;99.90;;;;;;509269;233;27806;-65
2022/12/07 02:31:08;;;;;;;8.32;5.65;;;2.10;99.90;;;;;;509211;233;27835;-66
2022/12/07 02:33:09;;;;;;;10.90;6.18;;;2.10;99.90;;;;;;509211;233;27813;-68
2022/12/07 02:35:11;;;;;;;8.25;6.10;;;2.10;99.90;;;;;;509067;233;27848;-66
2022/12/07 02:37:12;;;;;;;9.93;6.87;;;2.10;99.90;;;;;;509029;233;27453;-65
2022/12/07 02:39:13;;;;;;;8.40;5.82;;;2.10;99.90;;;;;;509004;233;27409;-65
2022/12/07 02:41:14;;;;;;;9.98;6.35;;;2.10;99.90;;;;;;509018;233;27450;-66
2022/12/07 02:43:16;;;;;;;9.05;6.53;;;2.10;99.90;;;;;;509170;233;27368;-68
2022/12/07 02:45:17;;;;;;;8.27;6.35;;;2.10;99.90;;;;;;509270;233;27415;-65
2022/12/07 02:47:18;;;;;;;8.73;6.47;;;2.10;99.90;;;;;;509264;233;27388;-66
2022/12/07 02:49:19;;;;;;;6.85;5.22;;;2.10;99.90;;;;;;509253;233;27334;-65
2022/12/07 02:51:21;;;;;;;8.32;5.78;;;2.10;99.90;;;;;;509222;233;27372;-65
2022/12/07 02:53:22;;;;;;;8.00;5.70;;;2.10;99.90;;;;;;509266;233;27428;-68
2022/12/07 02:55:23;;;;;;;8.25;5.72;;;2.10;99.90;;;;;;509244;233;27330;-66
2022/12/07 02:57:24;;;;;;;12.93;6.35;;;2.10;99.90;;;;;;509248;233;27844;-66
2022/12/07 02:59:26;;;;;;;9.00;5.78;;;2.10;99.90;;;;;;509225;233;27793;-66
2022/12/07 03:01:27;;;;;;;8.07;5.90;;;2.10;99.90;;;;;;509280;233;27446;-66
2022/12/07 03:03:28;;;;;;;10.13;5.70;;;2.10;99.90;;;;;;509281;233;27357;-67
2022/12/07 03:05:30;;;;;;;9.95;6.50;;;2.10;99.90;;;;;;509256;233;27879;-65
2022/12/07 03:07:31;;;;;;;7.10;5.57;;;2.20;99.90;;;;;;509260;233;27933;-66
2022/12/07 03:09:32;;;;;;;9.50;5.90;;;2.20;99.90;;;;;;509296;233;27912;-65
2022/12/07 03:11:33;;;;;;;7.93;5.85;;;2.20;99.90;;;;;;509305;233;27935;-65
2022/12/07 03:13:35;;;;;;;11.38;6.47;;;2.20;99.90;;;;;;509273;233;27353;-67
2022/12/07 03:15:36;;;;;;;8.52;6.10;;;2.20;99.90;;;;;;509250;233;27337;-66
2022/12/07 03:17:37;;;;;;;8.18;6.03;;;2.10;99.90;;;;;;509225;233;27373;-66
2022/12/07 03:19:38;;;;;;;10.40;6.45;;;2.10;99.90;;;;;;509269;233;27484;-65
2022/12/07 03:21:40;;;;;;;10.73;6.68;;;2.10;99.90;;;;;;509263;233;27412;-65
2022/12/07 03:23:41;;;;;;;7.35;5.65;;;2.10;99.90;;;;;;509255;233;27385;-67
2022/12/07 03:25:42;;;;;;;8.98;5.85;;;2.10;99.90;;;;;;509222;233;27341;-66
2022/12/07 03:27:43;;;;;;;12.05;7.32;;;2.10;99.90;;;;;;509226;233;27416;-67
2022/12/07 03:29:45;;;;;;;8.52;5.55;;;2.10;99.90;;;;;;509276;233;27491;-69
2022/12/07 03:31:46;;;;;;;12.05;6.82;;;2.10;99.90;;;;;;509256;233;27802;-65
2022/12/07 03:33:47;;;;;;;9.25;6.47;;;2.10;99.90;;;;;;509249;233;27829;-66
2022/12/07 03:35:48;;;;;;;9.50;6.35;;;2.10;99.90;;;;;;509213;233;27803;-65
2022/12/07 03:37:50;;;;;;;9.95;6.95;;;2.10;99.90;;;;;;509219;233;27373;-66
2022/12/07 03:39:51;;;;;;;11.82;6.97;;;2.10;99.90;;;;;;509274;233;27377;-69
2022/12/07 03:41:52;;;;;;;10.10;6.20;;;2.10;99.90;;;;;;509246;233;27340;-67
2022/12/07 03:43:53;;;;;;;8.10;6.45;;;2.10;99.90;;;;;;509196;233;27483;-67
2022/12/07 03:45:55;;;;;;;9.98;6.62;;;2.10;99.90;;;;;;509243;233;27419;-65
2022/12/07 03:47:56;;;;;;;8.23;6.10;;;2.10;99.90;;;;;;509221;233;27388;-65
2022/12/07 03:49:57;;;;;;;8.57;6.00;;;2.10;99.90;;;;;;509257;233;27356;-69
2022/12/07 03:51:58;;;;;;;9.30;5.82;;;2.10;99.90;;;;;;509259;233;27344;-65
2022/12/07 03:54:00;;;;;;;9.32;6.62;;;2.10;99.90;;;;;;509276;233;27474;-67
2022/12/07 03:56:01;;;;;;;7.78;5.65;;;2.10;99.90;;;;;;509206;233;27843;-65
2022/12/07 03:58:02;;;;;;;8.93;6.10;;;2.10;99.90;;;;;;509236;233;27942;-66
2022/12/07 04:00:03;;;;;;;9.35;6.15;;;2.10;99.90;;;;;;509266;233;27946;-68
2022/12/07 04:02:05;;;;;;;8.73;6.47;;;2.10;99.90;;;;;;509250;233;27793;-66
2022/12/07 04:04:06;;;;;;;8.10;5.65;;;2.10;99.90;;;;;;509250;233;27428;-65
2022/12/07 04:06:07;;;;;;;9.18;6.10;;;2.10;99.90;;;;;;509244;233;27330;-65
2022/12/07 04:08:08;;;;;;;8.98;6.25;;;2.10;99.90;;;;;;509231;233;27357;-66
2022/12/07 04:10:10;;;;;;;8.25;5.05;;;2.10;99.90;;;;;;509274;233;27385;-66
2022/12/07 04:12:11;;;;;;;6.87;5.30;;;2.10;99.90;;;;;;509261;233;27389;-65
2022/12/07 04:14:19;;;;;;;8.40;6.18;;;2.10;99.90;;;;;;509251;233;27473;-66
2022/12/07 04:16:20;;;;;;;8.90;6.53;;;2.10;99.90;;;;;;509240;233;27463;-68
2022/12/07 04:18:21;;;;;;;8.80;5.60;;;2.10;99.90;;;;;;509253;233;27383;-66
2022/12/07 04:20:22;;;;;;;10.68;6.57;;;2.20;99.90;;;;;;509145;233;27389;-67
2022/12/07 04:22:24;;;;;;;10.05;7.07;;;2.10;99.90;;;;;;509197;233;27800;-65
2022/12/07 04:24:25;;;;;;;9.18;6.65;;;2.20;99.90;;;;;;509252;233;27848;-65
2022/12/07 04:26:26;;;;;;;10.75;7.35;;;2.20;99.90;;;;;;509250;233;27915;-68
2022/12/07 04:28:27;;;;;;;9.77;7.12;;;2.20;99.90;;;;;;509267;233;27329;-66
2022/12/07 04:30:29;;;;;;;12.52;7.00;;;2.20;99.90;;;;;;509247;233;27373;-67
2022/12/07 04:32:30;;;;;;;10.07;6.85;;;2.20;99.90;;;;;;509260;233;27423;-66
2022/12/07 04:34:31;;;;;;;7.65;6.12;;;2.20;99.90;;;;;;509229;233;27382;-66
2022/12/07 04:36:32;;;;;;;8.93;6.57;;;2.20;99.90;;;;;;509264;233;27380;-65
2022/12/07 04:38:34;;;;;;;9.05;6.57;;;2.20;99.90;;;;;;509290;233;27420;-65
2022/12/07 04:40:35;;;;;;;8.10;6.12;;;2.20;99.90;;;;;;509275;233;27373;-64
2022/12/07 04:42:36;;;;;;;9.23;6.30;;;2.10;99.90;;;;;;509237;233;27337;-65
2022/12/07 04:44:37;;;;;;;7.20;5.75;;;2.10;99.90;;;;;;509246;233;27931;-65
2022/12/07 04:46:39;;;;;;;9.13;6.10;;;2.10;99.90;;;;;;509267;233;27948;-68
2022/12/07 04:48:40;;;;;;;9.00;6.80;;;2.10;99.90;;;;;;509235;233;27840;-65
2022/12/07 04:50:41;;;;;;;10.55;7.05;;;2.10;99.90;;;;;;509237;233;27871;-66
2022/12/07 04:52:42;;;;;;;10.63;7.35;;;2.10;99.90;;;;;;509236;233;27329;-65
2022/12/07 04:54:44;;;;;;;10.40;7.03;;;2.10;99.90;;;;;;509224;233;27372;-66
2022/12/07 04:56:45;;;;;;;12.30;6.90;;;2.10;99.90;;;;;;509264;233;27368;-68
2022/12/07 04:58:46;;;;;;;11.55;7.55;;;2.10;99.90;;;;;;509247;233;27337;-66
2022/12/07 05:00:47;;;;;;;8.95;6.07;;;2.10;99.90;;;;;;509266;233;27495;-66
2022/12/07 05:02:49;;;;;;;13.25;7.40;;;2.10;99.90;;;;;;509257;233;27324;-66
2022/12/07 05:04:50;;;;;;;10.15;5.87;;;2.10;99.90;;;;;;509258;233;27433;-67
2022/12/07 05:06:51;;;;;;;9.68;6.80;;;2.10;99.90;;;;;;509249;233;27400;-68
2022/12/07 05:08:52;;;;;;;9.00;6.47;;;2.10;99.90;;;;;;509280;233;27810;-65
2022/12/07 05:10:54;;;;;;;9.95;7.07;;;2.10;99.90;;;;;;509263;233;27837;-66
2022/12/07 05:12:55;;;;;;;11.30;7.18;;;2.10;99.90;;;;;;509239;233;27796;-66
2022/12/07 05:14:56;;;;;;;10.23;6.95;;;2.10;99.90;;;;;;509244;233;27397;-66
2022/12/07 05:16:57;;;;;;;10.43;7.85;;;2.10;99.90;;;;;;509275;233;27356;-68
2022/12/07 05:18:59;;;;;;;10.20;6.80;;;2.10;99.90;;;;;;509282;233;27341;-65
2022/12/07 05:21:00;;;;;;;11.40;7.10;;;2.10;99.90;;;;;;509275;233;27365;-66
2022/12/07 05:23:01;;;;;;;12.20;6.82;;;2.10;99.90;;;;;;509227;233;27435;-65
2022/12/07 05:25:02;;;;;;;9.70;7.10;;;2.10;99.90;;;;;;509251;233;27397;-67
2022/12/07 05:27:04;;;;;;;9.45;7.10;;;2.10;99.90;;;;;;509246;233;27760;-68
2022/12/07 05:29:05;;;;;;;11.68;7.80;;;2.00;99.90;;;;;;509255;233;27431;-66
2022/12/07 05:31:06;;;;;;;13.18;8.13;;;2.10;99.90;;;;;;509266;233;27927;-66
2022/12/07 05:33:07;;;;;;;11.57;7.93;;;2.00;99.90;;;;;;509225;233;27804;-65
2022/12/07 05:35:09;;;;;;;10.60;7.45;;;2.10;99.90;;;;;;509238;233;27878;-66
2022/12/07 05:37:10;;;;;;;13.93;7.85;;;2.10;99.90;;;;;;509262;233;27345;-65
2022/12/07 05:39:11;;;;;;;9.82;7.70;;;2.10;99.90;;;;;;509284;233;27357;-66
2022/12/07 05:42:11;;;;;;;9.48;7.53;;;2.10;99.90;;;;;;509267;233;27377;-66
2022/12/07 05:43:14;;;;;;;13.10;8.93;;;2.10;99.90;;;;;;506904;233;27321;-66
2022/12/07 05:45:15;;;;;;;11.00;8.10;;;2.10;99.90;;;;;;509234;233;27490;-65
2022/12/07 05:47:16;;;;;;;11.10;7.47;;;2.10;99.90;;;;;;509222;233;27717;-65
2022/12/07 05:49:17;;;;;;;12.52;8.00;;;2.10;99.90;;;;;;509278;233;27329;-66
2022/12/07 05:51:19;;;;;;;11.05;7.18;;;2.10;99.90;;;;;;509285;233;27890;-67
2022/12/07 05:53:20;;;;;;;9.63;7.07;;;2.20;99.90;;;;;;509278;233;27792;-65
2022/12/07 05:55:21;;;;;;;9.68;7.10;;;2.10;99.90;;;;;;509255;233;27835;-66
2022/12/07 05:57:22;;;;;;;8.75;6.95;;;2.10;99.90;;;;;;509286;233;28607;-65
2022/12/07 05:59:24;;;;;;;9.70;6.90;;;2.10;99.90;;;;;;509312;233;27389;-66
2022/12/07 06:01:25;;;;;;;12.32;7.40;;;2.10;99.90;;;;;;509269;233;27399;-68
2022/12/07 06:03:26;;;;;;;11.73;7.50;;;2.10;99.90;;;;;;509272;233;27448;-66
2022/12/07 06:05:27;;;;;;;11.23;7.25;;;2.20;99.90;;;;;;509245;233;27372;-66
2022/12/07 06:07:29;;;;;;;11.32;7.25;;;2.20;99.90;;;;;;509230;233;27431;-65
2022/12/07 06:09:30;;;;;;;10.13;7.37;;;2.20;99.90;;;;;;509280;233;27337;-66
2022/12/07 06:13:51;;;;;;;11.00;7.22;;;2.20;99.90;;;;;;509241;233;27919;-66
2022/12/07 06:15:52;;;;;;;15.40;8.05;;;2.20;99.90;;;;;;509207;233;27369;-66
2022/12/07 06:17:53;;;;;;;11.40;8.00;;;2.20;99.90;;;;;;509283;233;27407;-68
2022/12/07 06:19:54;;;;;;;9.10;7.10;;;2.20;99.90;;;;;;509272;233;27416;-66
2022/12/07 06:21:56;;;;;;;9.98;7.40;;;2.20;99.90;;;;;;509277;233;27365;-68
2022/12/07 06:23:57;;;;;;;11.43;7.85;;;2.20;99.90;;;;;;509237;233;27341;-66
2022/12/07 06:25:58;;;;;;;12.98;8.07;;;2.20;99.90;;;;;;509252;233;27365;-66
2022/12/07 06:27:59;;;;;;;11.45;7.68;;;2.20;99.90;;;;;;509299;233;27360;-69
2022/12/07 06:30:06;;;;;;;12.13;7.75;;;2.20;99.90;;;;;;509265;233;27947;-65
2022/12/07 06:32:02;;;;;;;10.52;6.65;;;2.30;99.90;;;;;;508717;233;27815;-68
2022/12/07 06:34:03;;;;;;;8.82;6.78;;;2.30;99.90;;;;;;509237;233;27796;-66
2022/12/07 06:36:04;;;;;;;11.32;7.20;;;2.20;99.90;;;;;;509214;233;27448;-66
2022/12/07 06:38:06;;;;;;;12.32;7.50;;;2.30;99.90;;;;;;509269;233;27389;-68
2022/12/07 06:40:07;;;;;;;10.18;7.18;;;2.30;99.90;;;;;;509258;233;27352;-66
2022/12/07 06:42:08;;;;;;;12.80;7.72;;;2.30;99.90;;;;;;509264;233;27365;-66
2022/12/07 06:44:09;;;;;;;12.40;7.28;;;2.30;99.90;;;;;;509242;233;27353;-66
2022/12/07 06:46:11;;;;;;;12.18;7.43;;;2.30;99.90;;;;;;509207;233;27384;-68
2022/12/07 06:48:12;;;;;;;10.88;7.60;;;2.30;99.90;;;;;;509307;233;27451;-69
2022/12/07 06:50:13;;;;;;;10.93;7.78;;;2.30;99.90;;;;;;509261;233;27431;-65
2022/12/07 06:52:14;;;;;;;11.77;7.70;;;2.30;99.90;;;;;;509238;233;27932;-66
2022/12/07 06:54:16;;;;;;;12.23;7.20;;;2.30;99.90;;;;;;509256;233;27789;-65
2022/12/07 06:56:17;;;;;;;12.10;8.10;;;2.30;99.90;;;;;;509227;233;27427;-66
2022/12/07 06:58:18;;;;;;;9.63;7.15;;;2.30;99.90;;;;;;509291;233;27399;-68
2022/12/07 07:00:19;;;;;;;10.55;7.55;;;2.30;99.90;;;;;;509238;233;27354;-66
2022/12/07 07:02:21;;;;;;;14.18;8.63;;;2.30;99.90;;;;;;509248;233;27380;-66
2022/12/07 07:04:22;;;;;;;12.95;7.65;;;2.30;99.90;;;;;;509180;233;27349;-65
2022/12/07 07:06:24;;;;;;;11.23;7.45;;;2.30;99.90;;;;;;509213;233;27770;-65
2022/12/07 07:08:25;;;;;;;12.07;7.53;;;2.30;99.90;;;;;;509273;233;27905;-66
2022/12/07 07:10:26;;;;;;;11.38;7.10;;;2.30;99.90;;;;;;509248;233;27400;-66
2022/12/07 07:12:27;;;;;;;9.63;7.03;;;2.30;99.90;;;;;;509280;233;27395;-65
2022/12/07 07:14:29;;;;;;;11.20;7.90;;;2.30;99.90;;;;;;509248;233;27484;-68
2022/12/07 07:16:30;;;;;;;10.85;7.97;;;2.40;99.90;;;;;;509208;233;27340;-65
2022/12/07 07:18:31;;;;;;;11.68;8.07;;;2.40;99.90;;;;;;509232;233;27475;-66
2022/12/07 07:20:33;;;;;;;12.75;7.82;;;2.40;99.90;;;;;;509255;233;27783;-69
2022/12/07 07:22:34;;;;;;;8.95;7.35;;;2.40;99.90;;;;;;509267;233;27431;-66
2022/12/07 07:24:35;;;;;;;13.57;7.82;;;2.40;99.90;;;;;;509259;233;27451;-66
2022/12/07 07:26:36;;;;;;;13.27;7.62;;;2.40;99.90;;;;;;509274;233;27834;-65
2022/12/07 07:28:37;;;;;;;11.80;7.85;;;2.40;99.90;;;;;;509282;233;27836;-66
2022/12/07 07:30:39;;;;;;;12.57;7.37;;;2.40;99.90;;;;;;509258;233;27435;-68
2022/12/07 07:32:40;;;;;;;12.43;8.07;;;2.40;99.90;;;;;;509272;233;27416;-65
2022/12/07 07:34:41;;;;;;;10.80;7.60;;;2.40;99.90;;;;;;509261;233;27383;-67
2022/12/07 07:36:42;;;;;;;10.88;7.25;;;2.50;99.90;;;;;;509253;233;27329;-66
2022/12/07 07:38:44;;;;;;;16.92;8.48;;;2.50;99.90;;;;;;509232;233;27376;-66
2022/12/07 07:40:45;;;;;;;14.40;8.63;;;2.40;99.90;;;;;;509261;233;27365;-68
2022/12/07 07:42:46;;;;;;;13.38;7.43;;;2.50;99.90;;;;;;509296;233;27325;-66
2022/12/07 07:44:47;;;;;;;11.98;8.85;;;2.50;99.90;;;;;;509241;233;27950;-67
2022/12/07 07:46:49;;;;;;;11.38;7.80;;;2.50;99.90;;;;;;509225;233;27793;-66
2022/12/07 07:48:50;;;;;;;11.68;7.18;;;2.50;99.90;;;;;;509200;233;27850;-66
2022/12/07 07:50:51;;;;;;;12.35;8.07;;;2.50;99.90;;;;;;509274;233;27373;-68
2022/12/07 07:52:52;;;;;;;14.40;8.23;;;2.50;99.90;;;;;;509269;233;27332;-66
2022/12/07 07:54:54;;;;;;;13.30;8.35;;;2.50;99.90;;;;;;509263;233;27377;-66
2022/12/07 07:56:55;;;;;;;13.68;9.18;;;2.50;99.90;;;;;;509231;233;27328;-65
2022/12/07 07:58:56;;;;;;;13.32;8.10;;;2.60;99.90;;;;;;509214;233;27381;-66
2022/12/07 08:00:57;;;;;;;10.35;7.25;;;2.60;99.90;;;;;;509285;233;27359;-69
2022/12/07 08:02:59;;;;;;;13.43;7.60;;;2.60;99.90;;;;;;509254;233;27428;-65
2022/12/07 08:05:00;;;;;;;11.20;8.07;;;2.60;99.90;;;;;;509256;233;27872;-67
2022/12/07 08:07:01;;;;;;;12.32;8.10;;;2.60;99.90;;;;;;509245;233;27935;-65
2022/12/07 08:09:04;;;;;;;11.60;7.65;;;2.60;99.90;;;;;;509230;233;27950;-66
2022/12/07 08:11:04;;;;;;;14.55;7.90;;;2.60;99.90;;;;;;509198;233;27357;-68
2022/12/07 08:13:11;;;;;;;14.98;8.75;;;2.60;99.90;;;;;;509246;233;27416;-66
2022/12/07 08:15:12;;;;;;;13.65;7.85;;;2.60;99.90;;;;;;509259;233;27444;-67
2022/12/07 08:17:13;;;;;;;15.30;9.43;;;2.60;99.90;;;;;;509233;233;27903;-66
2022/12/07 08:19:15;;;;;;;12.25;8.50;;;2.60;99.90;;;;;;509225;233;27852;-67
2022/12/07 08:21:16;;;;;;;13.82;8.48;;;2.60;99.90;;;;;;509259;233;27364;-66
2022/12/07 08:23:17;;;;;;;12.68;8.63;;;2.60;99.90;;;;;;509250;233;27322;-65
2022/12/07 08:25:19;;;;;;;14.45;8.65;;;2.60;99.90;;;;;;509222;233;27446;-67
2022/12/07 08:27:20;;;;;;;12.02;8.02;;;2.60;99.90;;;;;;509251;233;27442;-66
2022/12/07 08:29:21;;;;;;;14.98;9.10;;;2.70;99.90;;;;;;509239;233;27462;-67
2022/12/07 08:31:22;;;;;;;16.75;9.15;;;2.70;99.90;;;;;;509304;233;27369;-68
2022/12/07 08:33:24;;;;;;;11.12;7.68;;;2.70;99.90;;;;;;509260;233;27348;-65
2022/12/07 08:35:25;;;;;;;14.32;8.55;;;2.70;99.90;;;;;;509281;233;27392;-67
2022/12/07 08:37:26;;;;;;;12.45;8.30;;;2.70;99.90;;;;;;509258;233;27797;-67
2022/12/07 08:39:27;;;;;;;14.80;8.27;;;2.70;99.90;;;;;;509296;233;27821;-66
2022/12/07 08:41:29;;;;;;;12.82;8.35;;;2.70;99.90;;;;;;509359;233;27439;-69
2022/12/07 08:43:30;;;;;;;12.57;7.78;;;2.70;99.90;;;;;;509333;233;27417;-66
2022/12/07 08:45:35;;;;;;;14.70;9.00;;;2.80;99.90;;;;;;509321;233;27448;-67
2022/12/07 08:47:32;;;;;;;15.27;9.32;;;2.80;99.90;;;;;;508936;233;27436;-66
2022/12/07 08:49:34;;;;;;;16.58;8.27;;;2.80;99.90;;;;;;509311;233;27385;-65
2022/12/07 08:51:35;;;;;;;12.68;8.38;;;2.90;99.90;;;;;;509330;233;27974;-69
2022/12/07 08:53:36;;;;;;;14.57;9.18;;;2.90;99.90;;;;;;509330;233;27345;-66
2022/12/07 08:55:37;;;;;;;11.05;7.62;;;2.90;99.90;;;;;;509329;233;27883;-67
2022/12/07 08:57:39;;;;;;;11.95;8.05;;;2.90;99.90;;;;;;509290;233;27840;-65
2022/12/07 08:59:40;;;;;;;12.00;8.05;;;3.00;99.90;;;;;;509274;233;27930;-66
2022/12/07 09:01:41;;;;;;;13.77;8.57;;;3.00;99.90;;;;;;509298;233;27475;-66
2022/12/07 09:03:42;;;;;;;13.18;8.88;;;3.00;99.90;;;;;;509322;233;27446;-65
2022/12/07 09:05:44;;;;;;;9.82;7.65;;;3.00;99.90;;;;;;509305;233;27432;-66
2022/12/07 09:07:45;;;;;;;17.15;9.05;;;3.00;99.90;;;;;;509298;233;27368;-66
2022/12/07 09:09:46;;;;;;;17.40;9.15;;;3.10;99.90;;;;;;509282;233;27499;-66
2022/12/07 09:11:47;;;;;;;13.45;8.60;;;3.10;99.90;;;;;;509296;233;27588;-68
2022/12/07 09:13:49;;;;;;;14.68;8.82;;;3.10;99.90;;;;;;509328;233;27377;-65
2022/12/07 09:15:50;;;;;;;15.48;8.50;;;3.10;99.90;;;;;;509311;233;27869;-67
2022/12/07 09:17:51;;;;;;;17.70;9.52;;;3.20;99.90;;;;;;509306;233;27852;-66
2022/12/07 09:19:52;;;;;;;14.23;8.75;;;3.10;99.90;;;;;;509196;233;27856;-66
2022/12/07 09:21:54;;;;;;;13.93;8.95;;;3.10;99.90;;;;;;509299;233;27432;-69
2022/12/07 09:23:55;;;;;;;13.38;8.68;;;3.20;99.90;;;;;;509308;233;27349;-66
2022/12/07 09:25:56;;;;;;;12.27;8.40;;;3.20;99.90;;;;;;509306;233;27466;-67
2022/12/07 09:27:57;;;;;;;14.00;8.63;;;3.30;99.90;;;;;;509316;233;27774;-66
2022/12/07 09:29:59;;;;;;;16.48;8.80;;;3.30;99.90;;;;;;509281;233;27957;-66
2022/12/07 09:32:00;;;;;;;12.30;7.50;;;3.30;99.90;;;;;;509321;233;28955;-69
2022/12/07 09:34:01;;;;;;;12.27;8.40;;;3.30;99.90;;;;;;509312;233;27384;-66
2022/12/07 09:36:02;;;;;;;14.05;8.85;;;3.30;99.90;;;;;;509287;233;27372;-67
2022/12/07 09:38:04;;;;;;;14.68;9.40;;;3.30;99.90;;;;;;509283;233;27333;-66
2022/12/07 09:40:05;;;;;;;16.02;9.95;;;3.40;99.90;;;;;;509284;233;27504;-66
2022/12/07 09:42:06;;;;;;;12.68;8.70;;;3.50;99.90;;;;;;509308;233;27392;-69
2022/12/07 09:44:07;;;;;;;11.65;8.25;;;3.40;99.90;;;;;;509327;233;27356;-66
2022/12/07 09:46:09;;;;;;;13.73;9.30;;;3.40;99.90;;;;;;509288;233;27381;-66
2022/12/07 09:48:10;;;;;;;12.63;8.82;;;3.50;99.90;;;;;;509262;233;27829;-65
2022/12/07 09:50:11;;;;;;;13.62;9.63;;;3.50;99.90;;;;;;509244;233;27880;-66
2022/12/07 09:52:12;;;;;;;14.07;8.38;;;3.60;99.90;;;;;;509250;233;27458;-68
2022/12/07 09:54:14;;;;;;;13.90;9.02;;;3.70;99.90;;;;;;509279;233;27419;-66
2022/12/07 09:56:15;;;;;;;11.32;7.53;;;3.70;99.90;;;;;;509258;233;27448;-67
2022/12/07 09:58:16;;;;;;;12.25;8.23;;;3.70;99.90;;;;;;509261;233;27321;-66
2022/12/07 10:00:17;;;;;;;11.50;8.07;;;3.70;99.90;;;;;;509222;233;27408;-66
2022/12/07 10:02:19;;;;;;;11.75;8.43;;;3.60;99.90;;;;;;509276;233;27487;-68
2022/12/07 10:04:21;;;;;;;14.82;8.93;;;3.60;99.90;;;;;;509279;233;27849;-67
2022/12/07 10:06:21;;;;;;;12.43;8.43;;;3.60;99.90;;;;;;509253;233;28934;-67
2022/12/07 10:08:22;;;;;;;19.20;8.65;;;3.60;99.90;;;;;;509238;233;27773;-66
2022/12/07 10:10:24;;;;;;;14.55;8.43;;;3.80;99.90;;;;;;509244;233;27452;-66
2022/12/07 10:12:26;;;;;;;11.00;8.38;;;3.90;99.90;;;;;;509299;233;27471;-69
2022/12/07 10:14:27;;;;;;;13.18;7.93;;;3.80;99.90;;;;;;509277;233;27400;-67
2022/12/07 10:16:29;;;;;;;10.60;7.00;;;3.90;99.90;;;;;;509255;233;27317;-66
2022/12/07 10:18:30;;;;;;;12.80;8.43;;;3.90;99.90;;;;;;509256;233;27903;-67
2022/12/07 10:20:31;;;;;;;12.32;8.02;;;3.80;99.90;;;;;;509264;233;28218;-65
2022/12/07 10:22:32;;;;;;;12.50;8.30;;;3.70;99.90;;;;;;509287;233;27877;-67
2022/12/07 10:24:34;;;;;;;11.48;8.25;;;3.70;99.90;;;;;;509286;233;27380;-68
2022/12/07 10:26:35;;;;;;;12.02;8.25;;;3.70;99.90;;;;;;509232;233;27325;-66
2022/12/07 10:28:36;;;;;;;13.82;8.48;;;3.70;99.90;;;;;;509250;233;27385;-67
2022/12/07 10:30:37;;;;;;;13.27;8.50;;;3.80;99.90;;;;;;509242;233;27372;-66
2022/12/07 10:32:39;;;;;;;15.45;8.63;;;3.80;99.90;;;;;;509285;233;27341;-66
2022/12/07 10:34:40;;;;;;;12.52;8.73;;;3.80;99.90;;;;;;509275;233;27471;-67
2022/12/07 10:36:41;;;;;;;11.52;7.80;;;3.90;99.90;;;;;;509263;233;27442;-66